This is the latest recevied weather packets stored in our database for station/object W5ITZ. If no packets are shown the sender has not sent any weather packets the latest 10 day(s).
| Time | Temp. | Humidity | Pressure | Rain* | Wind** | Luminosity | Snow |
|---|---|---|---|---|---|---|---|
| 1788107542 | 32.78° C | 61% | 1017 hPa | 0 mm | - | 581 W/m² | - |
| 1788107236 | 33.33° C | 60% | 1017.1 hPa | 0 mm | - | 946 W/m² | - |
| 1788106932 | 33.33° C | 58% | 1017.1 hPa | 0 mm | - | 197 W/m² | - |
| 1788106627 | 33.33° C | 57% | 1017 hPa | 0 mm | - | 553 W/m² | - |
| 1788106320 | 33.33° C | 58% | 1017.1 hPa | 0 mm | - | 826 W/m² | - |
| 1788106017 | 33.33° C | 57% | 1016.9 hPa | 0 mm | - | 805 W/m² | - |
| 1788105711 | 33.33° C | 59% | 1017.1 hPa | 0 mm | - | 798 W/m² | - |
| 1788105408 | 32.22° C | 65% | 1017.1 hPa | 0 mm | - | 751 W/m² | - |
| 1788105105 | 32.22° C | 65% | 1017.1 hPa | 0 mm | - | 728 W/m² | - |
| 1788104799 | 32.22° C | 65% | 1017.1 hPa | 0 mm | - | 714 W/m² | - |
| 1788104495 | 31.67° C | 65% | 1017.2 hPa | 0 mm | - | 703 W/m² | - |
| 1788104191 | 32.22° C | 66% | 1017.1 hPa | 0 mm | - | 685 W/m² | - |
| 1788103891 | 31.67° C | 66% | 1017.1 hPa | 0 mm | - | 678 W/m² | - |
| 1788103590 | 31.67° C | 67% | 1017.1 hPa | 0 mm | - | 550 W/m² | - |
| 1788103289 | 31.67° C | 66% | 1017.1 hPa | 0 mm | - | 698 W/m² | - |
| 1788102999 | 31.11° C | 69% | 1017.2 hPa | 0 mm | - | 471 W/m² | - |
| 1788102684 | 31.11° C | 70% | 1017.1 hPa | 0 mm | - | 189 W/m² | - |
| 1788102379 | 31.11° C | 71% | 1017.1 hPa | 0 mm | - | 207 W/m² | - |
| 1788102074 | 31.67° C | 70% | 1017 hPa | 0 mm | - | 673 W/m² | - |
| 1788101773 | 31.67° C | 69% | 1017.2 hPa | 0 mm | - | 647 W/m² | - |
| 1788101468 | 31.67° C | 70% | 1016.8 hPa | 0 mm | - | 552 W/m² | - |
| 1788101164 | 31.11° C | 72% | 1016.9 hPa | 0 mm | - | 506 W/m² | - |
| 1788100860 | 30.56° C | 73% | 1017 hPa | 0 mm | - | 469 W/m² | - |
| 1788100555 | 31.11° C | 72% | 1017.1 hPa | 0 mm | - | 462 W/m² | - |
| 1788100253 | 30.56° C | 74% | 1017.2 hPa | 0 mm | - | 428 W/m² | - |
* Rain latest hour (hover to see other rain measurements)
** Current wind speed in m/s (hover to see current wind gust speed)